createdAt,value
2023-02-28T00:00:46.020Z,11.55
2023-02-28T00:03:16.224Z,12.77
2023-02-28T00:05:46.440Z,10.65
2023-02-28T00:08:19.268Z,11.63
2023-02-28T00:10:50.040Z,12.32
2023-02-28T00:13:20.591Z,14.02
2023-02-28T00:15:52.904Z,9.85
2023-02-28T00:18:23.234Z,11.82
2023-02-28T00:20:53.615Z,12.63
2023-02-28T00:23:26.617Z,12.95
2023-02-28T00:25:57.762Z,11.88
2023-02-28T00:28:28.299Z,12.73
2023-02-28T00:30:58.997Z,14.52
2023-02-28T00:33:29.289Z,11.95
2023-02-28T00:36:09.213Z,12.77
2023-02-28T00:38:43.490Z,12.93
2023-02-28T00:41:13.650Z,11.05
2023-02-28T00:43:44.108Z,12.80
2023-02-28T00:46:14.396Z,11.13
2023-02-28T00:48:44.710Z,9.73
2023-02-28T00:51:14.852Z,10.68
2023-02-28T00:53:47.809Z,11.98
2023-02-28T00:56:18.024Z,10.63
2023-02-28T00:58:48.170Z,10.50
2023-02-28T01:01:18.574Z,11.68
2023-02-28T01:03:49.321Z,8.30
2023-02-28T01:06:19.523Z,10.93
2023-02-28T01:08:52.481Z,13.25
2023-02-28T01:11:22.922Z,10.97
2023-02-28T01:13:53.228Z,8.63
2023-02-28T01:16:25.643Z,10.43
2023-02-28T01:19:01.042Z,8.02
2023-02-28T01:21:31.635Z,10.30
2023-02-28T01:24:05.216Z,13.07
2023-02-28T01:26:35.931Z,8.63
2023-02-28T01:29:06.710Z,9.68
2023-02-28T01:31:37.140Z,9.15
2023-02-28T01:34:07.581Z,9.90
2023-02-28T01:36:37.687Z,11.05
2023-02-28T01:39:10.724Z,8.98
2023-02-28T01:41:41.548Z,10.27
2023-02-28T01:44:46.708Z,11.10
2023-02-28T01:47:17.688Z,10.55
2023-02-28T01:49:48.480Z,9.98
2023-02-28T01:52:21.412Z,11.50
2023-02-28T01:54:56.243Z,8.50
2023-02-28T01:57:30.791Z,10.88
2023-02-28T02:00:08.059Z,11.73
2023-02-28T02:02:41.305Z,8.15
2023-02-28T02:05:15.368Z,10.52
2023-02-28T02:07:48.309Z,12.25
2023-02-28T02:10:23.024Z,9.80
2023-02-28T02:13:06.246Z,6.95
2023-02-28T02:15:40.690Z,10.57
2023-02-28T02:18:20.109Z,7.60
2023-02-28T02:21:36.679Z,8.38
2023-02-28T02:24:44.438Z,7.25
2023-02-28T02:27:30.916Z,9.73
2023-02-28T02:30:25.684Z,14.02
2023-02-28T02:35:47.620Z,7.07
2023-02-28T02:38:24.179Z,10.55
2023-02-28T02:41:00.504Z,15.55
2023-02-28T02:43:36.853Z,7.90
2023-02-28T02:46:12.415Z,8.18
2023-02-28T02:48:46.167Z,10.35
2023-02-28T02:51:21.686Z,7.45
2023-02-28T02:53:56.423Z,10.40
2023-02-28T02:56:31.097Z,4.50
2023-02-28T02:59:06.127Z,13.15
2023-02-28T03:01:41.372Z,10.57
2023-02-28T03:04:17.040Z,11.70
2023-02-28T03:06:49.918Z,7.60
2023-02-28T03:09:20.131Z,9.57
2023-02-28T03:11:51.477Z,8.77
2023-02-28T03:14:34.467Z,9.77
2023-02-28T03:17:23.865Z,9.18
2023-02-28T03:20:08.384Z,13.15
2023-02-28T03:23:03.613Z,10.98
2023-02-28T03:28:12.752Z,12.07
2023-02-28T03:30:54.966Z,9.95
2023-02-28T03:33:28.666Z,13.02
2023-02-28T03:36:01.124Z,14.02
2023-02-28T03:38:39.348Z,9.07
2023-02-28T03:41:15.006Z,9.52
2023-02-28T03:43:50.369Z,11.40
2023-02-28T03:46:25.087Z,13.43
2023-02-28T03:49:00.089Z,9.60
2023-02-28T03:51:33.428Z,10.05
2023-02-28T03:54:09.652Z,11.82
2023-02-28T03:56:45.126Z,10.95
2023-02-28T03:59:20.396Z,8.23
2023-02-28T04:01:53.185Z,12.75
2023-02-28T04:04:23.482Z,11.98
2023-02-28T04:06:55.203Z,12.82
2023-02-28T04:09:28.908Z,9.70
2023-02-28T04:11:59.624Z,9.10
2023-02-28T04:14:30.331Z,8.40
2023-02-28T04:17:00.488Z,10.52
2023-02-28T04:19:30.652Z,9.95
2023-02-28T04:22:00.914Z,11.77
2023-02-28T04:24:34.077Z,17.67
2023-02-28T04:27:04.269Z,9.13
2023-02-28T04:29:35.829Z,12.80
2023-02-28T04:32:07.182Z,9.60
2023-02-28T04:34:40.312Z,10.05
2023-02-28T04:37:13.629Z,10.82
2023-02-28T04:39:47.792Z,10.75
2023-02-28T04:42:19.298Z,9.32
2023-02-28T04:44:49.555Z,8.55
2023-02-28T04:47:19.672Z,10.43
2023-02-28T04:49:49.983Z,9.13
2023-02-28T04:52:20.760Z,9.85
2023-02-28T04:54:55.777Z,9.68
2023-02-28T04:57:25.996Z,10.32
2023-02-28T04:59:57.064Z,10.00
2023-02-28T05:02:27.511Z,9.60
2023-02-28T05:04:57.716Z,8.32
2023-02-28T05:07:27.969Z,10.25
2023-02-28T05:10:00.805Z,10.35
2023-02-28T05:12:31.111Z,10.98
2023-02-28T05:15:02.310Z,9.15
2023-02-28T05:17:32.941Z,8.80
2023-02-28T05:20:14.959Z,8.10
2023-02-28T05:22:47.295Z,11.40
2023-02-28T05:25:25.411Z,8.20
2023-02-28T05:27:55.595Z,7.32
2023-02-28T05:30:26.120Z,9.00
2023-02-28T05:32:57.415Z,7.22
2023-02-28T05:35:28.262Z,8.60
2023-02-28T05:37:58.797Z,8.27
2023-02-28T05:40:31.698Z,8.15
2023-02-28T05:43:02.046Z,8.73
2023-02-28T05:45:32.243Z,9.55
2023-02-28T05:48:02.802Z,8.25
2023-02-28T05:50:32.955Z,10.45
2023-02-28T05:53:03.194Z,8.48
2023-02-28T05:55:37.041Z,9.43
2023-02-28T05:58:07.197Z,7.55
2023-02-28T06:00:37.427Z,9.43
2023-02-28T06:03:07.791Z,8.73
2023-02-28T06:05:39.608Z,9.18
2023-02-28T06:08:09.782Z,10.45
2023-02-28T06:10:42.737Z,10.57
2023-02-28T06:13:13.969Z,9.70
2023-02-28T06:15:44.423Z,8.93
2023-02-28T06:18:14.588Z,8.68
2023-02-28T06:20:44.793Z,7.50
2023-02-28T06:23:14.875Z,8.35
2023-02-28T06:25:48.925Z,8.20
2023-02-28T06:28:19.343Z,10.88
2023-02-28T06:30:49.762Z,8.32
2023-02-28T06:33:19.996Z,7.72
2023-02-28T06:35:51.236Z,9.23
2023-02-28T06:38:21.970Z,11.85
2023-02-28T06:41:00.399Z,11.27
2023-02-28T06:43:32.388Z,11.35
2023-02-28T06:46:04.356Z,9.73
2023-02-28T06:48:36.046Z,15.63
2023-02-28T06:51:09.655Z,10.70
2023-02-28T06:53:40.516Z,8.57
2023-02-28T06:56:16.038Z,8.43
2023-02-28T06:58:46.463Z,8.43
2023-02-28T07:01:18.256Z,9.13
2023-02-28T07:03:53.199Z,9.00
2023-02-28T07:06:24.005Z,9.15
2023-02-28T07:08:55.421Z,7.95
2023-02-28T07:11:33.368Z,8.65
2023-02-28T07:14:03.589Z,9.85
2023-02-28T07:16:33.894Z,12.18
2023-02-28T07:19:04.062Z,10.73
2023-02-28T07:21:34.351Z,7.50
2023-02-28T07:24:04.493Z,11.60
2023-02-28T07:26:37.952Z,12.10
2023-02-28T07:29:08.187Z,9.30
2023-02-28T07:31:38.672Z,9.80
2023-02-28T07:34:09.364Z,8.38
2023-02-28T07:36:39.628Z,9.82
2023-02-28T07:39:10.459Z,8.43
2023-02-28T07:41:44.704Z,7.85
2023-02-28T07:46:45.248Z,8.68
2023-02-28T07:49:15.524Z,9.25
2023-02-28T07:51:45.840Z,9.68
2023-02-28T07:54:16.035Z,7.70
2023-02-28T07:56:48.803Z,8.63
2023-02-28T07:59:19.134Z,8.55
2023-02-28T08:01:51.497Z,8.55
2023-02-28T08:04:22.430Z,7.25
2023-02-28T08:06:53.179Z,8.30
2023-02-28T08:09:23.475Z,8.85
2023-02-28T08:11:56.222Z,9.13
2023-02-28T08:14:26.367Z,9.60
2023-02-28T08:16:56.580Z,7.35
2023-02-28T08:19:26.909Z,7.25
2023-02-28T08:21:57.264Z,7.45
2023-02-28T08:24:27.688Z,6.60
2023-02-28T08:27:00.553Z,9.50
2023-02-28T08:29:31.389Z,7.18
2023-02-28T08:32:02.235Z,7.82
2023-02-28T08:34:32.677Z,9.75
2023-02-28T08:37:02.991Z,8.90
2023-02-28T08:39:38.143Z,6.88
2023-02-28T08:42:11.055Z,8.97
2023-02-28T08:44:41.703Z,9.65
2023-02-28T08:47:11.907Z,9.40
2023-02-28T08:49:42.345Z,6.82
2023-02-28T08:52:12.502Z,7.45
2023-02-28T08:54:42.844Z,7.32
2023-02-28T08:57:15.547Z,7.65
2023-02-28T08:59:45.788Z,9.13
2023-02-28T09:02:17.986Z,8.73
2023-02-28T09:04:49.186Z,6.32
2023-02-28T09:07:19.379Z,6.95
2023-02-28T09:09:58.811Z,4.00
2023-02-28T09:12:37.387Z,5.55
2023-02-28T09:15:09.115Z,4.82
2023-02-28T09:17:39.374Z,8.57
2023-02-28T09:20:11.540Z,5.15
2023-02-28T09:22:41.916Z,5.80
2023-02-28T09:25:15.217Z,5.47
2023-02-28T09:27:48.195Z,5.25
2023-02-28T09:30:19.327Z,6.45
2023-02-28T09:32:53.150Z,6.13
2023-02-28T09:35:23.943Z,4.90
2023-02-28T09:37:55.493Z,5.00
2023-02-28T09:40:29.464Z,4.15
2023-02-28T09:43:04.104Z,5.53
2023-02-28T09:45:37.632Z,5.32
2023-02-28T09:48:14.012Z,6.63
2023-02-28T09:50:48.604Z,5.47
2023-02-28T09:53:28.154Z,6.07
2023-02-28T09:56:02.512Z,7.03
2023-02-28T09:58:41.168Z,7.57
2023-02-28T10:01:16.203Z,7.20
2023-02-28T10:03:50.830Z,5.75
2023-02-28T10:06:23.997Z,7.00
2023-02-28T10:09:00.249Z,5.90
2023-02-28T10:11:36.663Z,5.13
2023-02-28T10:14:16.646Z,6.32
2023-02-28T10:16:53.110Z,5.95
2023-02-28T10:19:27.988Z,10.45
2023-02-28T10:22:03.123Z,7.53
2023-02-28T10:27:10.197Z,9.00
2023-02-28T10:29:46.411Z,6.70
2023-02-28T10:32:20.778Z,6.93
2023-02-28T10:34:56.477Z,7.85
2023-02-28T10:37:26.773Z,7.63
2023-02-28T10:39:57.471Z,6.55
2023-02-28T10:42:29.857Z,10.25
2023-02-28T10:45:21.115Z,6.60
2023-02-28T10:47:58.555Z,7.25
2023-02-28T10:50:39.023Z,9.57
2023-02-28T10:53:20.777Z,7.10
2023-02-28T10:56:00.778Z,8.00
2023-02-28T10:58:33.640Z,7.78
2023-02-28T11:01:06.606Z,7.75
2023-02-28T11:03:38.699Z,9.00
2023-02-28T11:06:11.768Z,8.10
2023-02-28T11:08:52.425Z,7.68
2023-02-28T11:11:24.850Z,10.00
2023-02-28T11:13:57.941Z,6.03
2023-02-28T11:16:40.807Z,7.28
2023-02-28T11:19:23.107Z,10.35
2023-02-28T11:21:59.555Z,8.77
2023-02-28T11:24:32.565Z,5.10
2023-02-28T11:27:03.294Z,9.30
2023-02-28T11:29:36.119Z,7.03
2023-02-28T11:32:19.892Z,8.18
2023-02-28T11:35:03.522Z,9.77
2023-02-28T11:37:36.594Z,10.73
2023-02-28T11:40:16.702Z,6.95
2023-02-28T11:42:58.435Z,9.20
2023-02-28T11:45:47.350Z,6.85
2023-02-28T11:48:26.460Z,8.05
2023-02-28T11:51:07.131Z,6.13
2023-02-28T11:53:54.710Z,7.15
2023-02-28T11:56:33.982Z,6.18
2023-02-28T11:59:23.030Z,3.60
2023-02-28T12:02:09.885Z,5.10
2023-02-28T12:04:51.442Z,6.97
2023-02-28T12:07:29.521Z,2.92
2023-02-28T12:10:10.279Z,5.93
2023-02-28T12:12:53.564Z,5.82
2023-02-28T12:15:45.587Z,4.65
2023-02-28T12:18:33.639Z,6.45
2023-02-28T12:21:13.737Z,5.60
2023-02-28T12:23:58.914Z,7.15
2023-02-28T12:26:39.148Z,5.53
2023-02-28T12:29:20.548Z,6.55
2023-02-28T12:31:56.218Z,6.32
2023-02-28T12:34:31.425Z,5.38
2023-02-28T12:37:10.529Z,6.90
2023-02-28T12:39:50.510Z,7.07
2023-02-28T12:42:26.992Z,5.93
2023-02-28T12:45:02.968Z,6.57
2023-02-28T12:47:33.318Z,7.25
2023-02-28T12:50:12.499Z,7.78
2023-02-28T12:52:57.465Z,6.55
2023-02-28T12:55:37.197Z,7.55
2023-02-28T12:58:17.795Z,6.63
2023-02-28T13:01:06.514Z,7.43
2023-02-28T13:03:54.572Z,5.40
2023-02-28T13:06:49.534Z,2.25
2023-02-28T13:09:25.320Z,9.25
2023-02-28T13:11:58.426Z,6.75
2023-02-28T13:14:32.002Z,8.23
2023-02-28T13:17:14.986Z,7.35
2023-02-28T13:19:48.820Z,10.45
2023-02-28T13:22:25.018Z,8.15
2023-02-28T13:24:59.076Z,8.38
2023-02-28T13:30:39.558Z,10.63
2023-02-28T13:33:27.080Z,9.25
2023-02-28T13:36:27.026Z,11.35
2023-02-28T13:39:01.297Z,8.05
2023-02-28T13:41:53.011Z,9.07
2023-02-28T13:44:27.931Z,8.23
2023-02-28T13:47:33.570Z,8.75
2023-02-28T13:50:26.381Z,11.85
2023-02-28T13:53:07.094Z,8.95
2023-02-28T13:55:41.496Z,10.48
2023-02-28T13:58:32.474Z,10.48
2023-02-28T14:01:17.371Z,9.38
2023-02-28T14:04:01.804Z,9.93
2023-02-28T14:09:09.035Z,9.05
2023-02-28T14:11:41.616Z,11.43
2023-02-28T14:14:49.270Z,11.70
2023-02-28T14:17:21.565Z,15.50
2023-02-28T14:19:53.987Z,13.70
2023-02-28T14:22:49.600Z,16.35
2023-02-28T14:25:27.942Z,8.30
2023-02-28T14:28:10.693Z,9.35
2023-02-28T14:31:01.647Z,8.20
2023-02-28T14:33:47.264Z,9.52
2023-02-28T14:36:23.965Z,6.82
2023-02-28T14:38:56.808Z,7.75
2023-02-28T14:41:32.584Z,9.23
2023-02-28T14:44:05.123Z,7.18
2023-02-28T14:46:42.349Z,8.02
2023-02-28T14:49:21.009Z,11.77
2023-02-28T14:51:53.388Z,8.30
2023-02-28T14:54:27.284Z,8.75
2023-02-28T14:56:57.743Z,8.68
2023-02-28T14:59:33.816Z,9.88
2023-02-28T15:02:24.649Z,10.35
2023-02-28T15:05:00.979Z,9.07
2023-02-28T15:07:36.743Z,9.57
2023-02-28T15:10:18.671Z,11.40
2023-02-28T15:12:57.440Z,9.07
2023-02-28T15:15:40.262Z,10.52
2023-02-28T15:18:24.725Z,9.20
2023-02-28T15:20:56.291Z,11.05
2023-02-28T15:23:26.968Z,10.18
2023-02-28T15:25:58.073Z,8.57
2023-02-28T15:28:31.519Z,10.35
2023-02-28T15:31:04.840Z,9.65
2023-02-28T15:33:37.860Z,7.00
2023-02-28T15:36:11.339Z,8.18
2023-02-28T15:38:41.646Z,9.80
2023-02-28T15:41:28.251Z,8.18
2023-02-28T15:44:30.540Z,9.20
2023-02-28T15:47:06.564Z,11.70
2023-02-28T15:49:45.273Z,12.38
2023-02-28T15:52:20.389Z,13.30
2023-02-28T15:54:51.471Z,11.88
2023-02-28T15:57:25.535Z,11.98
2023-02-28T15:59:59.658Z,10.60
2023-02-28T16:02:36.359Z,10.85
2023-02-28T16:05:29.271Z,12.35
2023-02-28T16:08:00.517Z,12.15
2023-02-28T16:10:32.577Z,9.43
2023-02-28T16:13:02.992Z,11.43
2023-02-28T16:15:42.616Z,9.18
2023-02-28T16:18:15.514Z,10.57
2023-02-28T16:20:48.351Z,11.40
2023-02-28T16:23:18.576Z,13.82
2023-02-28T16:25:49.892Z,13.77
2023-02-28T16:28:24.388Z,14.93
2023-02-28T16:30:55.879Z,14.05
2023-02-28T16:33:26.189Z,15.85
2023-02-28T16:35:59.058Z,18.25
2023-02-28T16:38:29.272Z,13.27
2023-02-28T16:41:02.835Z,14.55
2023-02-28T16:43:33.505Z,10.88
2023-02-28T16:46:04.832Z,12.98
2023-02-28T16:48:37.558Z,13.52
2023-02-28T16:51:12.337Z,12.52
2023-02-28T16:53:42.660Z,13.23
2023-02-28T16:56:20.004Z,12.32
2023-02-28T16:58:51.396Z,15.25
2023-02-28T17:01:23.123Z,12.57
2023-02-28T17:03:53.784Z,13.05
2023-02-28T17:06:32.030Z,13.93
2023-02-28T17:09:03.088Z,16.23
2023-02-28T17:11:33.917Z,14.98
2023-02-28T17:14:04.475Z,14.73
2023-02-28T17:16:37.145Z,15.38
2023-02-28T17:19:14.566Z,19.95
2023-02-28T17:21:50.123Z,14.38
2023-02-28T17:24:30.304Z,15.55
2023-02-28T17:27:02.499Z,13.88
2023-02-28T17:29:33.444Z,16.33
2023-02-28T17:32:16.005Z,14.65
2023-02-28T17:34:47.927Z,17.13
2023-02-28T17:37:20.772Z,21.13
2023-02-28T17:39:52.116Z,17.00
2023-02-28T17:42:22.561Z,17.42
2023-02-28T17:44:52.752Z,12.32
2023-02-28T17:47:22.992Z,13.20
2023-02-28T17:49:53.376Z,11.73
2023-02-28T17:52:26.392Z,10.50
2023-02-28T17:54:56.540Z,12.20
2023-02-28T17:57:26.710Z,10.98
2023-02-28T17:59:56.970Z,11.50
2023-02-28T18:02:28.480Z,10.40
2023-02-28T18:04:59.152Z,9.50
2023-02-28T18:07:32.018Z,11.25
2023-02-28T18:10:02.326Z,12.35
2023-02-28T18:12:33.534Z,10.57
2023-02-28T18:15:03.744Z,10.55
2023-02-28T18:17:34.103Z,12.20
2023-02-28T18:20:05.648Z,12.02
2023-02-28T18:22:38.830Z,13.63
2023-02-28T18:25:14.676Z,18.25
2023-02-28T18:27:54.544Z,29.02
2023-02-28T18:30:26.061Z,38.55
2023-02-28T18:32:56.449Z,26.42
2023-02-28T18:35:37.669Z,28.05
2023-02-28T18:38:13.976Z,27.95
2023-02-28T18:40:45.244Z,38.03
2023-02-28T18:43:15.668Z,33.97
2023-02-28T18:45:46.169Z,27.48
2023-02-28T18:48:19.722Z,19.98
2023-02-28T18:50:52.081Z,20.85
2023-02-28T18:53:25.480Z,20.25
2023-02-28T18:55:55.820Z,25.02
2023-02-28T18:58:25.991Z,22.83
2023-02-28T19:00:56.411Z,23.15
2023-02-28T19:03:26.686Z,22.38
2023-02-28T19:05:58.250Z,24.83
2023-02-28T19:08:31.080Z,24.92
2023-02-28T19:11:01.624Z,40.85
2023-02-28T19:13:31.811Z,46.33
2023-02-28T19:16:04.807Z,52.13
2023-02-28T19:18:35.870Z,46.60
2023-02-28T19:21:06.208Z,36.30
2023-02-28T19:23:39.687Z,39.47
2023-02-28T19:26:13.209Z,37.42
2023-02-28T19:28:44.289Z,27.63
2023-02-28T19:31:16.876Z,27.90
2023-02-28T19:33:48.678Z,27.60
2023-02-28T19:36:19.185Z,23.38
2023-02-28T19:38:53.078Z,20.45
2023-02-28T19:41:24.445Z,25.33
2023-02-28T19:43:56.449Z,22.80
2023-02-28T19:46:26.628Z,27.33
2023-02-28T19:48:57.405Z,25.80
2023-02-28T19:51:34.484Z,23.13
2023-02-28T19:54:07.388Z,25.80
2023-02-28T19:56:37.538Z,24.55
2023-02-28T19:59:16.784Z,26.35
2023-02-28T20:01:54.723Z,24.00
2023-02-28T20:04:25.218Z,23.23
2023-02-28T20:06:56.218Z,19.55
2023-02-28T20:09:33.391Z,24.17
2023-02-28T20:12:07.175Z,23.88
2023-02-28T20:14:40.317Z,23.23
2023-02-28T20:17:10.701Z,25.00
2023-02-28T20:19:41.718Z,26.25
2023-02-28T20:22:12.667Z,28.75
2023-02-28T20:24:45.721Z,26.70
2023-02-28T20:27:17.474Z,28.20
2023-02-28T20:29:47.685Z,26.90
2023-02-28T20:32:17.939Z,34.72
2023-02-28T20:34:48.198Z,34.10
2023-02-28T20:37:18.563Z,31.35
2023-02-28T20:39:53.265Z,28.67
2023-02-28T20:42:24.921Z,37.83
2023-02-28T20:44:55.129Z,35.55
2023-02-28T20:47:25.351Z,34.45
2023-02-28T20:49:56.360Z,34.65
2023-02-28T20:52:26.740Z,37.10
2023-02-28T20:54:59.589Z,39.60
2023-02-28T20:57:31.897Z,31.95
2023-02-28T21:00:02.298Z,27.05
2023-02-28T21:02:34.014Z,29.42
2023-02-28T21:05:04.608Z,31.45
2023-02-28T21:07:34.815Z,28.75
2023-02-28T21:10:09.627Z,30.48
2023-02-28T21:12:44.501Z,31.40
2023-02-28T21:15:15.095Z,33.53
2023-02-28T21:17:48.137Z,31.98
2023-02-28T21:20:22.338Z,36.60
2023-02-28T21:22:54.166Z,35.97
2023-02-28T21:25:26.949Z,34.10
2023-02-28T21:27:58.356Z,36.13
2023-02-28T21:30:28.527Z,30.20
2023-02-28T21:32:59.192Z,29.67
2023-02-28T21:35:29.350Z,31.27
2023-02-28T21:37:59.570Z,39.22
2023-02-28T21:40:34.375Z,40.47
2023-02-28T21:43:04.552Z,37.47
2023-02-28T21:45:36.668Z,31.45
2023-02-28T21:48:07.251Z,35.92
2023-02-28T21:50:37.909Z,34.15
2023-02-28T21:53:14.048Z,34.20
2023-02-28T21:55:46.890Z,32.28
2023-02-28T21:58:17.521Z,36.53
2023-02-28T22:00:49.287Z,31.90
2023-02-28T22:03:19.415Z,32.13
2023-02-28T22:05:49.743Z,30.80
2023-02-28T22:08:19.866Z,33.10
2023-02-28T22:10:53.045Z,29.45
2023-02-28T22:13:23.180Z,34.97
2023-02-28T22:15:53.556Z,33.03
2023-02-28T22:18:23.721Z,26.40
2023-02-28T22:20:57.349Z,28.95
2023-02-28T22:23:27.577Z,31.60
2023-02-28T22:26:03.948Z,28.90
2023-02-28T22:28:34.445Z,26.83
2023-02-28T22:31:15.348Z,23.92
2023-02-28T22:33:45.955Z,23.58
2023-02-28T22:36:18.037Z,25.67
2023-02-28T22:38:50.936Z,22.55
2023-02-28T22:41:27.613Z,26.08
2023-02-28T22:44:00.182Z,20.63
2023-02-28T22:46:33.327Z,18.33
2023-02-28T22:49:05.877Z,22.35
2023-02-28T22:51:36.628Z,18.23
2023-02-28T22:54:07.324Z,17.98
2023-02-28T22:56:40.206Z,15.88
2023-02-28T22:59:11.263Z,14.77
2023-02-28T23:01:44.032Z,16.95
2023-02-28T23:04:15.444Z,12.73
2023-02-28T23:06:46.759Z,13.85
2023-02-28T23:09:21.660Z,13.38
2023-02-28T23:11:54.863Z,15.48
2023-02-28T23:14:24.954Z,16.77
2023-02-28T23:16:57.868Z,14.63
2023-02-28T23:19:30.005Z,14.05
2023-02-28T23:22:01.688Z,14.38
2023-02-28T23:24:35.513Z,14.40
2023-02-28T23:27:09.491Z,13.65
2023-02-28T23:29:40.383Z,15.88
2023-02-28T23:32:11.309Z,12.63
2023-02-28T23:34:41.903Z,15.40
2023-02-28T23:37:12.154Z,12.75
2023-02-28T23:39:42.885Z,12.10
2023-02-28T23:42:15.750Z,13.75
2023-02-28T23:44:49.326Z,12.33
2023-02-28T23:47:19.540Z,12.97
2023-02-28T23:49:50.912Z,14.80
2023-02-28T23:52:22.154Z,15.70
2023-02-28T23:54:52.411Z,12.07
2023-02-28T23:57:25.160Z,15.40
2023-02-28T23:59:58.137Z,17.13
